createdAt,value
2022-10-10T00:01:13.558Z,7.40
2022-10-10T00:03:40.853Z,7.50
2022-10-10T00:06:08.683Z,7.50
2022-10-10T00:08:36.415Z,7.50
2022-10-10T00:11:04.819Z,7.50
2022-10-10T00:13:32.255Z,7.50
2022-10-10T00:15:59.276Z,7.60
2022-10-10T00:18:26.768Z,7.60
2022-10-10T00:20:53.874Z,7.60
2022-10-10T00:23:21.476Z,7.60
2022-10-10T00:25:48.729Z,7.60
2022-10-10T00:28:16.299Z,7.70
2022-10-10T00:30:43.451Z,7.60
2022-10-10T00:33:10.418Z,7.60
2022-10-10T00:35:37.433Z,7.50
2022-10-10T00:38:04.401Z,7.50
2022-10-10T00:40:31.444Z,7.50
2022-10-10T00:42:58.571Z,7.50
2022-10-10T00:45:30.964Z,7.40
2022-10-10T00:48:11.051Z,7.50
2022-10-10T00:50:43.353Z,7.40
2022-10-10T00:53:12.100Z,7.50
2022-10-10T00:55:39.376Z,7.40
2022-10-10T00:58:08.236Z,7.40
2022-10-10T01:00:35.749Z,7.40
2022-10-10T01:03:02.843Z,7.40
2022-10-10T01:05:30.266Z,7.40
2022-10-10T01:07:57.520Z,7.40
2022-10-10T01:10:25.194Z,7.30
2022-10-10T01:13:07.042Z,7.30
2022-10-10T01:15:58.979Z,7.30
2022-10-10T01:18:48.261Z,7.30
2022-10-10T01:21:27.616Z,7.30
2022-10-10T01:24:13.576Z,7.30
2022-10-10T01:26:52.678Z,7.30
2022-10-10T01:29:43.118Z,7.40
2022-10-10T01:32:29.484Z,7.30
2022-10-10T01:35:19.314Z,7.30
2022-10-10T01:37:58.040Z,7.40
2022-10-10T01:40:34.082Z,7.30
2022-10-10T01:43:04.559Z,7.30
2022-10-10T01:45:31.744Z,7.30
2022-10-10T01:48:04.012Z,7.30
2022-10-10T01:50:36.250Z,7.30
2022-10-10T01:53:23.323Z,7.20
2022-10-10T01:56:01.523Z,7.30
2022-10-10T01:58:37.499Z,7.30
2022-10-10T02:01:16.917Z,7.30
2022-10-10T02:03:46.997Z,7.30
2022-10-10T02:06:24.564Z,7.40
2022-10-10T02:09:00.259Z,7.20
2022-10-10T02:11:29.643Z,7.20
2022-10-10T02:14:02.615Z,7.10
2022-10-10T02:16:34.136Z,7.00
2022-10-10T02:19:03.493Z,7.00
2022-10-10T02:21:31.643Z,7.10
2022-10-10T02:24:03.827Z,6.90
2022-10-10T02:26:32.216Z,6.90
2022-10-10T02:29:05.194Z,6.90
2022-10-10T02:31:41.487Z,6.90
2022-10-10T02:34:19.289Z,6.80
2022-10-10T02:36:51.793Z,6.80
2022-10-10T02:39:23.153Z,6.80
2022-10-10T02:41:52.814Z,6.80
2022-10-10T02:44:20.754Z,6.80
2022-10-10T02:46:47.947Z,6.60
2022-10-10T02:49:14.993Z,6.60
2022-10-10T02:51:41.955Z,6.60
2022-10-10T02:54:08.921Z,6.60
2022-10-10T02:56:36.012Z,6.60
2022-10-10T02:59:02.923Z,6.70
2022-10-10T03:01:29.891Z,6.70
2022-10-10T03:03:56.816Z,6.70
2022-10-10T03:06:23.728Z,6.60
2022-10-10T03:08:50.679Z,6.70
2022-10-10T03:11:17.606Z,6.60
2022-10-10T03:13:44.523Z,6.60
2022-10-10T03:16:11.569Z,6.60
2022-10-10T03:18:38.770Z,6.50
2022-10-10T03:21:05.872Z,6.50
2022-10-10T03:23:33.052Z,6.50
2022-10-10T03:25:59.967Z,6.60
2022-10-10T03:28:26.928Z,6.70
2022-10-10T03:30:53.903Z,6.70
2022-10-10T03:33:20.922Z,6.70
2022-10-10T03:35:48.156Z,6.80
2022-10-10T03:38:15.423Z,6.70
2022-10-10T03:40:44.120Z,6.70
2022-10-10T03:43:12.821Z,6.70
2022-10-10T03:45:43.636Z,6.70
2022-10-10T03:48:10.880Z,6.70
2022-10-10T03:50:37.985Z,6.70
2022-10-10T03:53:05.236Z,6.70
2022-10-10T03:55:32.194Z,6.70
2022-10-10T03:57:59.142Z,6.80
2022-10-10T04:00:26.097Z,6.90
2022-10-10T04:02:53.833Z,6.90
2022-10-10T04:05:21.004Z,6.90
2022-10-10T04:07:47.931Z,6.90
2022-10-10T04:10:14.849Z,6.80
2022-10-10T04:12:41.972Z,6.70
2022-10-10T04:15:09.389Z,6.60
2022-10-10T04:17:36.333Z,6.50
2022-10-10T04:20:03.356Z,6.50
2022-10-10T04:22:30.289Z,6.50
2022-10-10T04:24:57.209Z,6.60
2022-10-10T04:27:24.115Z,6.60
2022-10-10T04:29:50.997Z,6.60
2022-10-10T04:32:17.951Z,6.70
2022-10-10T04:34:44.854Z,6.70
2022-10-10T04:37:11.748Z,6.70
2022-10-10T04:39:38.763Z,6.70
2022-10-10T04:42:06.134Z,6.70
2022-10-10T04:44:33.075Z,6.70
2022-10-10T04:47:00.020Z,6.70
2022-10-10T04:49:26.908Z,6.70
2022-10-10T04:51:53.815Z,6.60
2022-10-10T04:54:20.766Z,6.60
2022-10-10T04:56:47.775Z,6.70
2022-10-10T04:59:14.667Z,6.60
2022-10-10T05:01:41.662Z,6.60
2022-10-10T05:04:08.622Z,6.60
2022-10-10T05:06:35.643Z,6.60
2022-10-10T05:09:02.581Z,6.60
2022-10-10T05:11:29.607Z,6.60
2022-10-10T05:13:56.527Z,6.50
2022-10-10T05:16:23.417Z,6.50
2022-10-10T05:18:50.393Z,6.50
2022-10-10T05:21:17.538Z,6.40
2022-10-10T05:23:44.517Z,6.40
2022-10-10T05:26:11.814Z,6.30
2022-10-10T05:28:38.768Z,6.30
2022-10-10T05:31:06.757Z,6.30
2022-10-10T05:33:35.092Z,6.40
2022-10-10T05:36:06.949Z,6.30
2022-10-10T05:38:34.758Z,6.30
2022-10-10T05:41:02.046Z,6.30
2022-10-10T05:43:28.992Z,6.30
2022-10-10T05:45:57.447Z,6.30
2022-10-10T05:48:25.170Z,6.30
2022-10-10T05:50:55.903Z,6.30
2022-10-10T05:53:23.794Z,6.20
2022-10-10T05:55:51.420Z,6.30
2022-10-10T05:58:18.764Z,6.30
2022-10-10T06:00:47.328Z,6.30
2022-10-10T06:03:17.183Z,6.30
2022-10-10T06:05:45.707Z,6.20
2022-10-10T06:08:12.848Z,6.20
2022-10-10T06:10:44.753Z,6.20
2022-10-10T06:13:14.039Z,6.10
2022-10-10T06:15:41.645Z,6.10
2022-10-10T06:18:09.600Z,6.10
2022-10-10T06:20:40.855Z,6.10
2022-10-10T06:23:09.175Z,6.10
2022-10-10T06:25:41.492Z,6.20
2022-10-10T06:28:09.268Z,6.20
2022-10-10T06:30:43.650Z,6.40
2022-10-10T06:33:12.181Z,6.50
2022-10-10T06:35:44.165Z,6.60
2022-10-10T06:38:11.812Z,6.70
2022-10-10T06:40:39.452Z,6.70
2022-10-10T06:43:13.260Z,6.70
2022-10-10T06:45:42.510Z,6.70
2022-10-10T06:48:14.082Z,6.70
2022-10-10T06:50:41.024Z,6.70
2022-10-10T06:53:08.033Z,6.80
2022-10-10T06:55:34.974Z,6.90
2022-10-10T06:58:02.334Z,7.00
2022-10-10T07:00:29.308Z,7.20
2022-10-10T07:02:56.273Z,7.40
2022-10-10T07:05:23.269Z,7.60
2022-10-10T07:07:52.252Z,7.70
2022-10-10T07:10:19.276Z,7.70
2022-10-10T07:12:46.168Z,7.80
2022-10-10T07:15:13.369Z,7.70
2022-10-10T07:17:40.540Z,7.70
2022-10-10T07:20:07.808Z,7.60
2022-10-10T07:22:35.051Z,7.50
2022-10-10T07:25:02.113Z,7.50
2022-10-10T07:27:29.008Z,7.50
2022-10-10T07:29:55.940Z,7.50
2022-10-10T07:32:22.896Z,7.50
2022-10-10T07:34:51.034Z,7.50
2022-10-10T07:37:18.091Z,7.50
2022-10-10T07:39:45.073Z,7.50
2022-10-10T07:42:12.030Z,7.50
2022-10-10T07:44:38.928Z,7.60
2022-10-10T07:47:06.035Z,7.60
2022-10-10T07:49:32.953Z,7.70
2022-10-10T07:52:01.635Z,7.80
2022-10-10T07:54:29.964Z,7.90
2022-10-10T07:56:57.576Z,8.00
2022-10-10T07:59:24.688Z,8.00
2022-10-10T08:01:51.910Z,8.20
2022-10-10T08:04:19.363Z,8.30
2022-10-10T08:06:46.429Z,8.50
2022-10-10T08:09:13.364Z,8.70
2022-10-10T08:11:40.318Z,8.80
2022-10-10T08:14:07.223Z,8.90
2022-10-10T08:16:34.137Z,9.10
2022-10-10T08:19:01.394Z,9.30
2022-10-10T08:21:28.401Z,9.50
2022-10-10T08:23:56.076Z,9.60
2022-10-10T08:26:23.047Z,9.60
2022-10-10T08:28:50.018Z,9.60
2022-10-10T08:31:19.602Z,9.60
2022-10-10T08:33:47.587Z,9.70
2022-10-10T08:36:20.250Z,9.90
2022-10-10T08:38:48.149Z,10.00
2022-10-10T08:41:22.189Z,10.00
2022-10-10T08:43:55.037Z,10.00
2022-10-10T08:46:35.989Z,10.00
2022-10-10T08:49:14.347Z,10.00
2022-10-10T08:51:46.723Z,10.10
2022-10-10T08:54:15.042Z,10.10
2022-10-10T08:56:42.231Z,10.30
2022-10-10T08:59:12.001Z,10.50
2022-10-10T09:02:17.785Z,10.70
2022-10-10T09:04:25.984Z,10.70
2022-10-10T09:06:56.083Z,10.80
2022-10-10T09:09:38.102Z,11.20
2022-10-10T09:12:30.926Z,11.20
2022-10-10T09:15:03.787Z,11.20
2022-10-10T09:17:47.079Z,11.60
2022-10-10T09:20:33.162Z,11.90
2022-10-10T09:23:06.040Z,12.20
2022-10-10T09:25:45.526Z,12.60
2022-10-10T09:28:37.097Z,13.00
2022-10-10T09:31:16.500Z,13.30
2022-10-10T09:33:52.062Z,13.40
2022-10-10T09:36:22.634Z,13.60
2022-10-10T09:39:00.494Z,14.00
2022-10-10T09:41:48.569Z,14.20
2022-10-10T09:44:17.834Z,14.40
2022-10-10T09:46:44.775Z,14.40
2022-10-10T09:49:15.320Z,14.60
2022-10-10T09:51:42.886Z,14.90
2022-10-10T09:54:11.156Z,15.10
2022-10-10T09:56:51.707Z,15.10
2022-10-10T09:59:38.859Z,15.20
2022-10-10T10:02:25.328Z,15.60
2022-10-10T10:04:53.487Z,15.60
2022-10-10T10:07:28.472Z,15.50
2022-10-10T10:10:17.597Z,15.40
2022-10-10T10:12:45.649Z,15.70
2022-10-10T10:15:32.496Z,16.00
2022-10-10T10:18:17.761Z,16.10
2022-10-10T10:20:47.397Z,15.90
2022-10-10T10:23:26.511Z,16.00
2022-10-10T10:26:15.796Z,15.90
2022-10-10T10:28:43.574Z,16.10
2022-10-10T10:31:22.744Z,16.40
2022-10-10T10:34:00.845Z,16.40
2022-10-10T10:36:55.881Z,16.60
2022-10-10T10:39:51.511Z,16.40
2022-10-10T10:43:03.055Z,16.70
2022-10-10T10:46:06.867Z,16.30
2022-10-10T10:48:47.035Z,16.70
2022-10-10T10:51:35.354Z,16.50
2022-10-10T10:54:29.797Z,16.80
2022-10-10T10:58:04.042Z,17.00
2022-10-10T11:01:19.818Z,16.60
2022-10-10T11:05:18.451Z,16.70
2022-10-10T11:07:17.296Z,16.80
2022-10-10T11:09:55.566Z,16.60
2022-10-10T11:12:39.731Z,16.60
2022-10-10T11:15:22.946Z,16.40
2022-10-10T11:17:52.725Z,16.40
2022-10-10T11:20:22.724Z,16.10
2022-10-10T11:23:14.131Z,16.40
2022-10-10T11:25:54.324Z,16.20
2022-10-10T11:28:26.759Z,16.30
2022-10-10T11:31:05.933Z,16.90
2022-10-10T11:33:42.225Z,17.00
2022-10-10T11:36:19.530Z,17.10
2022-10-10T11:38:59.817Z,17.50
2022-10-10T11:41:40.260Z,17.70
2022-10-10T11:44:13.154Z,17.80
2022-10-10T11:47:02.171Z,17.00
2022-10-10T11:49:40.673Z,17.40
2022-10-10T11:52:35.901Z,17.50
2022-10-10T11:55:33.981Z,17.10
2022-10-10T11:58:07.087Z,16.50
2022-10-10T12:00:44.422Z,15.70
2022-10-10T12:03:11.627Z,15.50
2022-10-10T12:05:42.408Z,15.50
2022-10-10T12:08:18.826Z,15.50
2022-10-10T12:10:54.841Z,15.90
2022-10-10T12:13:39.216Z,16.20
2022-10-10T12:16:10.165Z,16.40
2022-10-10T12:19:16.696Z,16.50
2022-10-10T12:22:00.498Z,16.70
2022-10-10T12:24:30.223Z,16.10
2022-10-10T12:26:57.044Z,16.30
2022-10-10T12:29:51.102Z,15.80
2022-10-10T12:32:21.294Z,15.80
2022-10-10T12:34:48.305Z,15.50
2022-10-10T12:37:21.858Z,15.30
2022-10-10T12:40:05.933Z,15.10
2022-10-10T12:42:59.385Z,15.10
2022-10-10T12:45:29.467Z,15.40
2022-10-10T12:48:06.258Z,15.90
2022-10-10T12:50:42.002Z,15.90
2022-10-10T12:53:20.077Z,16.20
2022-10-10T12:55:57.329Z,16.50
2022-10-10T12:58:41.483Z,16.80
2022-10-10T13:01:30.415Z,16.80
2022-10-10T13:03:58.120Z,17.00
2022-10-10T13:06:25.108Z,17.20
2022-10-10T13:08:55.581Z,17.10
2022-10-10T13:11:22.543Z,17.30
2022-10-10T13:13:57.455Z,17.40
2022-10-10T13:16:32.605Z,17.50
2022-10-10T13:19:01.141Z,17.60
2022-10-10T13:21:34.064Z,17.70
2022-10-10T13:24:04.289Z,17.90
2022-10-10T13:26:52.719Z,17.70
2022-10-10T13:29:36.866Z,18.10
2022-10-10T13:32:15.516Z,17.70
2022-10-10T13:34:47.532Z,17.50
2022-10-10T13:37:16.596Z,17.40
2022-10-10T13:39:44.108Z,16.60
2022-10-10T13:42:27.702Z,16.20
2022-10-10T13:44:55.647Z,15.60
2022-10-10T13:47:50.160Z,15.60
2022-10-10T13:50:35.122Z,15.40
2022-10-10T13:53:27.228Z,15.10
2022-10-10T13:56:02.774Z,14.90
2022-10-10T13:58:52.506Z,14.70
2022-10-10T14:01:29.616Z,14.50
2022-10-10T14:04:15.793Z,14.20
2022-10-10T14:06:53.305Z,14.00
2022-10-10T14:09:32.532Z,14.10
2022-10-10T14:12:02.308Z,14.10
2022-10-10T14:14:56.763Z,14.50
2022-10-10T14:17:23.862Z,15.00
2022-10-10T14:19:51.530Z,14.80
2022-10-10T14:22:19.360Z,14.50
2022-10-10T14:24:46.689Z,14.20
2022-10-10T14:27:19.401Z,14.30
2022-10-10T14:29:47.089Z,14.80
2022-10-10T14:32:15.180Z,15.50
2022-10-10T14:34:42.466Z,16.30
2022-10-10T14:37:24.264Z,16.40
2022-10-10T14:39:51.425Z,16.20
2022-10-10T14:42:19.905Z,16.30
2022-10-10T14:44:46.861Z,15.90
2022-10-10T14:47:22.548Z,16.20
2022-10-10T14:49:49.656Z,16.20
2022-10-10T14:52:16.810Z,16.00
2022-10-10T14:54:43.939Z,16.50
2022-10-10T14:57:13.963Z,17.00
2022-10-10T14:59:47.407Z,16.90
2022-10-10T15:02:22.089Z,16.70
2022-10-10T15:04:49.745Z,16.00
2022-10-10T15:07:17.335Z,15.90
2022-10-10T15:12:38.752Z,15.30
2022-10-10T15:15:06.961Z,15.30
2022-10-10T15:17:34.613Z,15.40
2022-10-10T15:20:02.803Z,15.40
2022-10-10T15:22:30.686Z,15.10
2022-10-10T15:24:57.811Z,14.90
2022-10-10T15:27:25.214Z,14.50
2022-10-10T15:29:52.092Z,14.10
2022-10-10T15:32:19.004Z,14.00
2022-10-10T15:34:49.889Z,13.80
2022-10-10T15:37:18.205Z,13.90
2022-10-10T15:39:45.942Z,13.90
2022-10-10T15:42:17.472Z,13.60
2022-10-10T15:44:49.838Z,13.60
2022-10-10T15:47:18.375Z,13.40
2022-10-10T15:49:45.376Z,13.20
2022-10-10T15:52:12.730Z,13.00
2022-10-10T15:54:39.696Z,12.80
2022-10-10T15:57:06.665Z,12.80
2022-10-10T15:59:34.020Z,12.90
2022-10-10T16:02:01.969Z,13.00
2022-10-10T16:04:28.940Z,13.00
2022-10-10T16:09:42.813Z,12.80
2022-10-10T16:12:09.722Z,12.60
2022-10-10T16:14:36.694Z,12.40
2022-10-10T16:17:03.831Z,12.30
2022-10-10T16:19:30.751Z,12.30
2022-10-10T16:21:57.750Z,12.30
2022-10-10T16:24:24.667Z,12.20
2022-10-10T16:26:51.549Z,12.30
2022-10-10T16:29:18.779Z,12.20
2022-10-10T16:31:46.152Z,12.10
2022-10-10T16:34:15.966Z,12.10
2022-10-10T16:36:43.327Z,11.90
2022-10-10T16:39:10.355Z,11.80
2022-10-10T16:41:52.667Z,11.70
2022-10-10T16:44:19.597Z,11.70
2022-10-10T16:46:46.665Z,11.60
2022-10-10T16:49:16.777Z,11.50
2022-10-10T16:51:44.016Z,11.50
2022-10-10T16:54:11.120Z,11.40
2022-10-10T16:56:38.326Z,11.30
2022-10-10T16:59:05.548Z,11.30
2022-10-10T17:01:32.607Z,11.20
2022-10-10T17:04:00.921Z,11.20
2022-10-10T17:06:34.928Z,11.20
2022-10-10T17:09:02.897Z,11.20
2022-10-10T17:11:30.012Z,11.10
2022-10-10T17:13:57.278Z,11.10
2022-10-10T17:17:07.017Z,11.00
2022-10-10T17:19:14.103Z,11.00
2022-10-10T17:21:41.118Z,11.00
2022-10-10T17:24:08.188Z,10.90
2022-10-10T17:26:35.293Z,10.90
2022-10-10T17:29:02.212Z,10.90
2022-10-10T17:31:29.405Z,10.90
2022-10-10T17:33:57.298Z,10.90
2022-10-10T17:36:26.711Z,10.80
2022-10-10T17:38:56.118Z,10.90
2022-10-10T17:41:23.769Z,10.80
2022-10-10T17:43:51.067Z,10.90
2022-10-10T17:46:40.589Z,11.00
2022-10-10T17:49:10.132Z,11.00
2022-10-10T17:51:38.841Z,10.90
2022-10-10T17:54:06.871Z,10.90
2022-10-10T17:56:35.070Z,10.90
2022-10-10T17:59:05.573Z,10.70
2022-10-10T18:01:33.830Z,10.60
2022-10-10T18:04:02.072Z,10.50
2022-10-10T18:06:29.594Z,10.40
2022-10-10T18:08:56.705Z,10.30
2022-10-10T18:11:27.608Z,10.30
2022-10-10T18:14:00.366Z,10.30
2022-10-10T18:16:33.861Z,10.30
2022-10-10T18:19:01.273Z,10.30
2022-10-10T18:21:28.226Z,10.30
2022-10-10T18:23:55.151Z,10.30
2022-10-10T18:26:24.836Z,10.30
2022-10-10T18:28:55.611Z,10.30
2022-10-10T18:31:34.094Z,10.20
2022-10-10T18:34:02.916Z,10.20
2022-10-10T18:36:32.127Z,10.10
2022-10-10T18:39:00.825Z,10.10
2022-10-10T18:41:33.871Z,10.20
2022-10-10T18:44:07.090Z,10.10
2022-10-10T18:46:34.872Z,10.10
2022-10-10T18:49:03.430Z,10.10
2022-10-10T18:51:31.199Z,10.10
2022-10-10T18:54:04.250Z,10.10
2022-10-10T18:56:33.033Z,10.00
2022-10-10T18:59:02.438Z,10.10
2022-10-10T19:01:36.509Z,10.00
2022-10-10T19:04:05.391Z,10.00
2022-10-10T19:06:32.482Z,10.10
2022-10-10T19:09:01.558Z,10.10
2022-10-10T19:11:31.307Z,10.10
2022-10-10T19:14:03.581Z,10.00
2022-10-10T19:16:31.433Z,9.90
2022-10-10T19:18:59.700Z,9.90
2022-10-10T19:21:29.104Z,9.80
2022-10-10T19:23:56.472Z,9.80
2022-10-10T19:26:23.397Z,9.60
2022-10-10T19:28:50.569Z,9.60
2022-10-10T19:31:19.419Z,9.60
2022-10-10T19:33:51.482Z,9.50
2022-10-10T19:36:18.493Z,9.40
2022-10-10T19:38:45.374Z,9.30
2022-10-10T19:41:14.357Z,9.30
2022-10-10T19:43:46.796Z,9.20
2022-10-10T19:46:16.434Z,9.20
2022-10-10T19:48:43.738Z,9.00
2022-10-10T19:51:14.168Z,9.00
2022-10-10T19:53:42.384Z,8.90
2022-10-10T19:56:21.009Z,8.90
2022-10-10T19:58:48.424Z,9.00
2022-10-10T20:01:17.409Z,9.00
2022-10-10T20:03:45.291Z,9.10
2022-10-10T20:06:12.376Z,9.00
2022-10-10T20:08:39.537Z,9.10
2022-10-10T20:11:06.584Z,9.10
2022-10-10T20:13:34.696Z,9.00
2022-10-10T20:16:03.936Z,9.00
2022-10-10T20:18:33.904Z,8.90
2022-10-10T20:21:06.246Z,8.90
2022-10-10T20:23:33.157Z,8.90
2022-10-10T20:26:00.222Z,8.90
2022-10-10T20:28:27.342Z,8.90
2022-10-10T20:30:54.264Z,8.80
2022-10-10T20:33:21.608Z,8.80
2022-10-10T20:35:53.677Z,8.70
2022-10-10T20:38:22.094Z,8.70
2022-10-10T20:40:49.071Z,8.70
2022-10-10T20:43:16.520Z,8.60
2022-10-10T20:45:43.476Z,8.60
2022-10-10T20:48:10.737Z,8.60
2022-10-10T20:50:38.588Z,8.60
2022-10-10T20:53:08.514Z,8.60
2022-10-10T20:55:35.438Z,8.60
2022-10-10T20:58:02.856Z,8.60
2022-10-10T21:00:29.836Z,8.60
2022-10-10T21:02:57.056Z,8.70
2022-10-10T21:05:24.032Z,8.60
2022-10-10T21:07:51.040Z,8.70
2022-10-10T21:10:18.089Z,8.60
2022-10-10T21:12:45.003Z,8.70
2022-10-10T21:15:11.910Z,8.60
2022-10-10T21:17:39.085Z,8.60
2022-10-10T21:20:06.464Z,8.60
2022-10-10T21:22:33.367Z,8.60
2022-10-10T21:25:00.277Z,8.50
2022-10-10T21:27:27.166Z,8.50
2022-10-10T21:29:54.094Z,8.60
2022-10-10T21:32:20.984Z,8.50
2022-10-10T21:34:50.994Z,8.50
2022-10-10T21:37:20.024Z,8.50
2022-10-10T21:39:46.932Z,8.50
2022-10-10T21:42:13.839Z,8.50
2022-10-10T21:44:41.626Z,8.50
2022-10-10T21:47:08.484Z,8.50
2022-10-10T21:49:35.466Z,8.40
2022-10-10T21:52:02.341Z,8.50
2022-10-10T21:54:29.240Z,8.50
2022-10-10T21:56:56.174Z,8.50
2022-10-10T21:59:23.748Z,8.50
2022-10-10T22:01:50.665Z,8.50
2022-10-10T22:04:17.794Z,8.40
2022-10-10T22:06:44.839Z,8.40
2022-10-10T22:09:11.825Z,8.30
2022-10-10T22:11:38.767Z,8.30
2022-10-10T22:14:05.765Z,8.20
2022-10-10T22:16:33.735Z,8.20
2022-10-10T22:19:01.168Z,8.10
2022-10-10T22:21:31.851Z,8.00
2022-10-10T22:24:01.801Z,7.90
2022-10-10T22:26:29.510Z,7.90
2022-10-10T22:28:56.697Z,7.90
2022-10-10T22:31:23.791Z,7.80
2022-10-10T22:33:50.757Z,7.90
2022-10-10T22:36:17.680Z,7.80
2022-10-10T22:38:45.773Z,7.80
2022-10-10T22:41:13.893Z,7.80
2022-10-10T22:43:40.966Z,7.80
2022-10-10T22:46:08.923Z,7.90
2022-10-10T22:48:36.431Z,7.80
2022-10-10T22:51:10.810Z,7.90
2022-10-10T22:53:39.507Z,7.90
2022-10-10T22:56:07.508Z,7.90
2022-10-10T22:58:34.935Z,7.90
2022-10-10T23:01:07.128Z,7.80
2022-10-10T23:03:34.101Z,7.80
2022-10-10T23:06:01.310Z,7.80
2022-10-10T23:08:28.547Z,7.70
2022-10-10T23:10:55.456Z,7.70
2022-10-10T23:13:22.525Z,7.80
2022-10-10T23:15:49.565Z,7.70
2022-10-10T23:18:16.452Z,7.70
2022-10-10T23:20:47.177Z,7.70
2022-10-10T23:23:15.091Z,7.70
2022-10-10T23:25:43.918Z,7.60
2022-10-10T23:28:11.857Z,7.30
2022-10-10T23:30:44.793Z,7.20
2022-10-10T23:33:13.038Z,7.30
2022-10-10T23:35:39.979Z,7.40
2022-10-10T23:38:06.925Z,7.40
2022-10-10T23:40:34.170Z,7.50
2022-10-10T23:43:01.218Z,7.50
2022-10-10T23:45:28.174Z,7.60
2022-10-10T23:47:55.371Z,7.70
2022-10-10T23:50:22.309Z,7.80
2022-10-10T23:52:49.271Z,7.80
2022-10-10T23:55:16.227Z,7.80
2022-10-10T23:57:43.524Z,7.90
